Time;durP1;ratioP1;P1;durP2;ratioP2;P2;SDS_P1;SDS_P2;PMS_P1;PMS_P2;Temp;Humidity;BMP_temperature;BMP_pressure;BME280_temperature;BME280_humidity;BME280_pressure;Samples;Min_cycle;Max_cycle;Signal;HPM_P1;HPM_P2
2022/11/17 00:03:39;;;;;;;94.78;73.47;;;21.40;58.90;;;;;;4777769;55;21116;-40
2022/11/17 00:08:40;;;;;;;92.18;73.62;;;21.40;58.90;;;;;;4732575;55;21056;-46
2022/11/17 00:24:21;;;;;;;89.47;68.55;;;21.40;58.90;;;;;;4695030;55;21024;-42
2022/11/17 00:29:22;;;;;;;86.72;68.93;;;21.40;58.80;;;;;;4777268;55;21473;-43
2022/11/17 00:34:23;;;;;;;86.60;67.95;;;21.40;58.80;;;;;;4854858;55;21084;-47
2022/11/17 00:39:24;;;;;;;85.15;66.00;;;21.40;58.80;;;;;;4997516;55;21003;-37
2022/11/17 00:44:25;;;;;;;85.45;67.03;;;21.40;58.90;;;;;;5166643;55;21107;-43
2022/11/17 00:49:26;;;;;;;81.55;65.53;;;21.40;58.90;;;;;;4694764;59;21008;-44
2022/11/17 00:54:27;;;;;;;85.90;65.93;;;21.40;58.90;;;;;;4975711;55;21087;-43
2022/11/17 00:59:28;;;;;;;85.65;66.47;;;21.40;58.80;;;;;;4831495;55;21600;-46
2022/11/17 01:04:29;;;;;;;81.47;63.92;;;21.40;59.40;;;;;;4694705;57;21107;-39
2022/11/17 01:09:29;;;;;;;78.53;61.78;;;21.40;58.90;;;;;;4845264;55;21011;-45
2022/11/17 01:14:31;;;;;;;75.90;59.58;;;21.40;58.80;;;;;;4716842;55;21012;-39
2022/11/17 01:19:32;;;;;;;76.12;59.70;;;21.40;58.90;;;;;;4695041;59;21474;-44
2022/11/17 01:24:33;;;;;;;72.30;59.25;;;21.40;58.80;;;;;;4967039;55;21011;-43
2022/11/17 01:29:33;;;;;;;78.43;61.83;;;21.40;58.90;;;;;;4795054;55;20992;-42
2022/11/17 01:34:34;;;;;;;74.10;59.72;;;21.30;58.80;;;;;;4921926;55;21115;-42
2022/11/17 01:39:35;;;;;;;77.47;59.75;;;21.40;58.80;;;;;;4694781;59;21601;-38
2022/11/17 01:44:58;;;;;;;73.32;58.75;;;21.30;58.80;;;;;;4702444;55;21004;-41
2022/11/17 01:50:18;;;;;;;70.12;56.22;;;21.30;59.40;;;;;;4814691;55;21039;-42
2022/11/17 01:55:23;;;;;;;71.97;57.10;;;21.30;58.80;;;;;;5098174;55;21163;-30
2022/11/17 02:00:23;;;;;;;68.85;56.97;;;21.30;58.80;;;;;;5139617;55;21048;-41
2022/11/17 02:06:59;;;;;;;69.20;55.10;;;21.30;58.80;;;;;;4877759;55;21108;-38
2022/11/17 02:12:01;;;;;;;68.77;55.10;;;21.30;58.80;;;;;;4695353;55;21004;-41
2022/11/17 02:17:02;;;;;;;64.50;52.85;;;21.30;58.70;;;;;;4750937;55;21008;-44
2022/11/17 02:27:38;;;;;;;65.53;52.70;;;21.30;58.70;;;;;;5170162;55;20984;-44
2022/11/17 02:33:01;;;;;;;63.35;51.25;;;21.30;58.70;;;;;;4698755;55;21004;-43
2022/11/17 02:39:41;;;;;;;62.53;50.05;;;21.30;58.80;;;;;;4778612;55;21056;-43
2022/11/17 02:45:04;;;;;;;63.40;50.12;;;21.30;58.70;;;;;;4952300;55;21135;-32
2022/11/17 02:50:08;;;;;;;57.97;47.50;;;21.30;58.70;;;;;;5170373;55;21044;-35
2022/11/17 02:55:10;;;;;;;58.60;48.25;;;21.30;58.70;;;;;;4712850;55;21590;-43
2022/11/17 03:00:16;;;;;;;57.42;47.53;;;21.30;58.70;;;;;;4922352;55;21008;-42
2022/11/17 03:10:53;;;;;;;56.85;46.45;;;21.30;58.70;;;;;;4694834;59;21537;-40
2022/11/17 03:16:34;;;;;;;54.97;45.75;;;21.30;58.70;;;;;;5169590;55;21525;-34
2022/11/17 03:21:55;;;;;;;57.35;44.63;;;21.30;58.70;;;;;;5083116;55;21016;-45
2022/11/17 03:27:17;;;;;;;51.80;44.35;;;21.30;58.70;;;;;;4897947;55;20996;-38
2022/11/17 03:32:20;;;;;;;52.25;43.13;;;21.30;58.70;;;;;;4695234;59;21012;-41
2022/11/17 03:37:25;;;;;;;54.72;44.00;;;21.30;58.70;;;;;;5170018;55;21064;-43
2022/11/17 03:42:31;;;;;;;51.80;43.25;;;21.30;58.60;;;;;;4868972;55;20989;-43
2022/11/17 03:47:34;;;;;;;51.97;43.60;;;21.30;58.60;;;;;;4944270;55;21000;-43
2022/11/17 03:52:36;;;;;;;51.08;41.90;;;21.30;58.60;;;;;;4742480;55;21064;-31
2022/11/17 03:57:57;;;;;;;49.78;41.55;;;21.30;58.60;;;;;;4737084;55;21529;-38
2022/11/17 04:02:58;;;;;;;50.72;42.05;;;21.30;58.60;;;;;;4723777;55;21016;-42
2022/11/17 04:07:59;;;;;;;48.00;39.35;;;21.30;58.60;;;;;;4845680;55;21518;-40
2022/11/17 04:18:20;;;;;;;46.90;39.33;;;21.30;58.70;;;;;;5067513;55;21474;-45
2022/11/17 04:23:21;;;;;;;45.97;38.55;;;21.30;58.60;;;;;;4724710;55;21012;-45
2022/11/17 04:28:36;;;;;;;49.95;38.38;;;21.30;58.60;;;;;;4935268;55;21004;-42
2022/11/17 04:33:42;;;;;;;47.40;38.97;;;21.30;58.60;;;;;;4920681;55;21159;-45
2022/11/17 04:38:47;;;;;;;44.03;36.92;;;21.30;58.60;;;;;;4744912;55;21000;-43
2022/11/17 04:43:49;;;;;;;45.12;37.58;;;21.30;58.60;;;;;;5036364;55;21008;-47
2022/11/17 04:48:52;;;;;;;47.30;38.38;;;21.30;58.60;;;;;;4695548;56;21117;-44
2022/11/17 04:53:53;;;;;;;42.00;35.20;;;21.30;58.60;;;;;;4922885;55;21695;-41
2022/11/17 04:58:55;;;;;;;43.17;35.47;;;21.30;58.60;;;;;;5150369;55;21035;-37
2022/11/17 05:03:59;;;;;;;41.20;34.60;;;21.30;58.60;;;;;;4724856;55;21047;-46
2022/11/17 05:09:03;;;;;;;41.10;34.50;;;21.30;58.60;;;;;;4694478;59;21542;-46
2022/11/17 05:14:04;;;;;;;41.33;34.25;;;21.30;58.70;;;;;;4853289;55;21036;-46
2022/11/17 05:19:06;;;;;;;40.70;34.25;;;21.30;58.70;;;;;;5169253;55;21018;-45
2022/11/17 05:24:08;;;;;;;39.97;33.13;;;21.30;58.70;;;;;;4694830;59;21036;-42
2022/11/17 05:29:11;;;;;;;38.58;33.10;;;21.30;58.70;;;;;;4829622;55;21505;-45
2022/11/17 05:34:13;;;;;;;40.15;33.05;;;21.30;58.70;;;;;;4694574;59;21076;-41
2022/11/17 05:39:15;;;;;;;38.67;32.30;;;21.30;58.70;;;;;;4771355;55;21024;-38
2022/11/17 05:44:15;;;;;;;38.45;31.98;;;21.30;58.70;;;;;;4700537;55;21450;-38
2022/11/17 05:49:16;;;;;;;36.30;31.08;;;21.30;58.70;;;;;;4802056;55;21000;-46
2022/11/17 05:54:17;;;;;;;36.97;31.75;;;21.30;58.70;;;;;;4721965;55;21083;-40
2022/11/17 05:59:53;;;;;;;37.63;30.67;;;21.30;58.70;;;;;;4735337;55;21015;-45
2022/11/17 06:04:54;;;;;;;36.10;30.80;;;21.30;58.70;;;;;;4982620;55;21031;-41
2022/11/17 06:09:56;;;;;;;39.45;32.05;;;21.30;58.60;;;;;;4695478;59;21011;-40
2022/11/17 06:14:56;;;;;;;35.17;29.70;;;21.30;58.70;;;;;;4755489;55;21040;-42
2022/11/17 06:20:06;;;;;;;38.08;31.75;;;21.30;58.60;;;;;;4695209;59;21488;-44
2022/11/17 06:25:08;;;;;;;40.15;32.15;;;21.30;58.60;;;;;;4780149;55;21056;-45
2022/11/17 06:30:10;;;;;;;38.85;33.40;;;21.30;58.60;;;;;;4948742;55;21000;-47
2022/11/17 06:35:13;;;;;;;36.63;31.08;;;21.30;58.60;;;;;;4988949;55;20985;-47
2022/11/17 06:40:15;;;;;;;36.60;31.45;;;21.30;58.60;;;;;;4826104;55;21963;-41
2022/11/17 06:45:16;;;;;;;38.08;32.22;;;21.30;58.60;;;;;;4762057;55;21494;-42
2022/11/17 06:50:16;;;;;;;39.80;32.80;;;21.30;58.60;;;;;;4714040;55;21068;-45
2022/11/17 06:55:17;;;;;;;40.65;32.70;;;21.30;58.70;;;;;;4737147;55;21024;-46
2022/11/17 07:00:19;;;;;;;38.65;32.58;;;21.30;58.60;;;;;;4694936;59;21518;-47
2022/11/17 07:05:20;;;;;;;38.33;32.58;;;21.30;58.60;;;;;;4742261;55;21072;-39
2022/11/17 07:10:20;;;;;;;37.38;32.30;;;21.30;58.60;;;;;;4811359;55;21119;-45
2022/11/17 07:15:21;;;;;;;40.47;33.47;;;21.30;58.60;;;;;;4742563;55;21568;-41
2022/11/17 07:20:22;;;;;;;39.90;33.35;;;21.30;58.60;;;;;;5041627;55;21564;-37
2022/11/17 07:25:23;;;;;;;37.60;32.63;;;21.30;58.60;;;;;;4694645;59;21083;-43
2022/11/17 07:30:24;;;;;;;38.35;32.03;;;21.30;58.50;;;;;;4694936;59;21470;-44
2022/11/17 07:35:25;;;;;;;40.12;33.78;;;21.30;58.60;;;;;;4694020;59;21028;-47
2022/11/17 07:40:29;;;;;;;41.08;33.67;;;21.30;58.60;;;;;;4857684;55;21071;-45
2022/11/17 07:45:30;;;;;;;41.92;34.42;;;21.20;58.50;;;;;;4716502;55;21534;-34
2022/11/17 07:50:32;;;;;;;39.92;33.38;;;21.30;58.60;;;;;;4746862;55;21001;-51
2022/11/17 07:55:33;;;;;;;43.28;35.58;;;21.30;58.50;;;;;;4755771;55;21008;-42
2022/11/17 08:00:34;;;;;;;42.47;35.38;;;21.30;58.50;;;;;;4707367;55;21016;-51
2022/11/17 08:05:35;;;;;;;41.83;35.03;;;21.30;58.50;;;;;;4694298;59;21152;-36
2022/11/17 08:10:36;;;;;;;42.35;35.70;;;21.30;58.50;;;;;;4697708;55;21000;-42
2022/11/17 08:15:37;;;;;;;42.22;35.75;;;21.30;58.50;;;;;;4770975;55;21035;-36
2022/11/17 08:20:38;;;;;;;49.08;38.08;;;21.30;58.50;;;;;;4744268;55;21048;-39
2022/11/17 08:25:39;;;;;;;48.25;37.03;;;21.30;58.50;;;;;;4755937;55;21067;-38
2022/11/17 08:30:39;;;;;;;52.85;39.15;;;21.40;59.60;;;;;;4694021;59;21056;-43
2022/11/17 08:35:40;;;;;;;48.70;39.53;;;21.40;59.10;;;;;;4762725;55;21039;-36
2022/11/17 08:40:41;;;;;;;51.35;41.78;;;21.50;59.10;;;;;;4733224;55;21051;-45
2022/11/17 08:45:42;;;;;;;53.55;42.55;;;21.50;59.20;;;;;;4811056;55;21067;-33
2022/11/17 08:50:43;;;;;;;54.40;43.83;;;21.60;59.20;;;;;;4853029;55;21015;-40
2022/11/17 08:55:44;;;;;;;59.22;46.40;;;21.60;59.20;;;;;;4719004;55;21028;-39
2022/11/17 09:00:46;;;;;;;63.87;48.17;;;21.60;59.20;;;;;;4694346;59;21019;-44
2022/11/17 09:05:47;;;;;;;68.62;51.53;;;21.60;59.20;;;;;;4712114;55;21473;-32
2022/11/17 09:10:50;;;;;;;70.18;54.15;;;21.70;59.50;;;;;;4718170;55;21056;-42
2022/11/17 09:15:51;;;;;;;69.93;53.15;;;21.70;59.60;;;;;;4772983;55;21518;-36
2022/11/17 09:20:52;;;;;;;78.00;58.72;;;21.70;59.70;;;;;;4750201;55;21012;-44
2022/11/17 09:25:53;;;;;;;79.47;58.15;;;21.70;59.70;;;;;;4712409;55;21550;-46
2022/11/17 09:30:53;;;;;;;83.03;63.42;;;21.80;60.40;;;;;;4710777;55;21007;-42
2022/11/17 09:35:56;;;;;;;83.85;65.12;;;21.80;60.00;;;;;;4693448;59;21039;-48
2022/11/17 09:40:58;;;;;;;81.53;64.32;;;21.80;59.60;;;;;;4710978;55;21020;-47
2022/11/17 09:46:10;;;;;;;86.78;66.62;;;21.70;59.40;;;;;;4709832;55;20996;-47
2022/11/17 09:51:17;;;;;;;90.80;66.78;;;21.70;59.20;;;;;;4694268;59;21059;-45
2022/11/17 09:56:18;;;;;;;94.85;70.87;;;21.70;59.10;;;;;;4693840;55;21079;-48
2022/11/17 10:01:20;;;;;;;96.90;71.75;;;21.70;59.00;;;;;;4709706;55;21023;-41
2022/11/17 10:06:27;;;;;;;96.00;72.85;;;21.70;59.10;;;;;;4724966;55;21651;-39
2022/11/17 10:11:34;;;;;;;93.07;71.60;;;21.70;59.00;;;;;;4694793;55;21067;-41
2022/11/17 10:16:37;;;;;;;100.70;75.68;;;21.80;59.40;;;;;;4771295;55;21652;-39
2022/11/17 10:21:38;;;;;;;102.40;76.87;;;21.80;59.40;;;;;;4694432;59;21056;-34
2022/11/17 10:26:48;;;;;;;99.47;78.15;;;21.90;59.60;;;;;;4694268;59;21004;-35
2022/11/17 10:31:49;;;;;;;102.40;80.15;;;21.90;59.60;;;;;;4717535;55;21100;-37
2022/11/17 10:36:50;;;;;;;103.47;78.82;;;21.90;59.70;;;;;;4724489;55;21072;-40
2022/11/17 10:41:51;;;;;;;100.78;77.97;;;21.90;59.80;;;;;;4730821;55;21055;-40
2022/11/17 10:46:57;;;;;;;101.68;77.60;;;21.90;60.30;;;;;;4769319;55;21004;-49
2022/11/17 10:52:15;;;;;;;101.63;78.37;;;21.90;60.00;;;;;;4740921;55;21080;-27
2022/11/17 10:57:21;;;;;;;109.18;77.97;;;21.90;60.00;;;;;;4693904;56;21383;-35
2022/11/17 11:02:35;;;;;;;111.70;81.63;;;21.90;59.90;;;;;;4691675;55;21012;-34
2022/11/17 11:07:36;;;;;;;105.93;79.53;;;21.90;59.80;;;;;;4694261;55;21000;-50
2022/11/17 11:13:13;;;;;;;104.90;83.07;;;21.90;59.70;;;;;;4697784;55;21071;-50
2022/11/17 11:18:17;;;;;;;109.97;81.90;;;21.90;59.60;;;;;;4694525;59;21036;-41
2022/11/17 11:23:40;;;;;;;111.65;85.65;;;21.90;59.30;;;;;;4694353;59;21470;-43
2022/11/17 11:30:43;;;;;;;104.47;79.43;;;21.90;59.20;;;;;;4713311;55;21000;-42
2022/11/17 11:36:16;;;;;;;106.80;83.40;;;21.90;59.30;;;;;;4707485;55;21099;-45
2022/11/17 11:42:03;;;;;;;104.00;82.53;;;21.90;59.30;;;;;;4721079;55;21047;-42
2022/11/17 11:48:14;;;;;;;105.78;80.18;;;21.90;59.30;;;;;;4733015;55;21015;-45
2022/11/17 11:55:13;;;;;;;104.80;82.93;;;21.90;59.30;;;;;;4714533;55;21139;-48
2022/11/17 12:00:16;;;;;;;105.85;82.62;;;21.90;59.30;;;;;;4721229;55;21107;-46
2022/11/17 12:05:57;;;;;;;105.50;83.32;;;21.90;59.20;;;;;;4728098;55;21518;-51
2022/11/17 12:11:59;;;;;;;103.75;82.20;;;21.90;59.20;;;;;;4746211;55;21032;-46
2022/11/17 12:17:24;;;;;;;104.55;81.75;;;21.90;59.10;;;;;;4693711;56;21627;-44
2022/11/17 12:22:52;;;;;;;107.55;85.15;;;21.90;59.00;;;;;;4741751;55;21546;-43
2022/11/17 12:27:53;;;;;;;111.40;86.82;;;21.90;59.00;;;;;;4743014;55;22250;-41
2022/11/17 12:32:55;;;;;;;110.22;85.93;;;21.90;58.90;;;;;;4694316;59;21534;-47
2022/11/17 12:45:03;;;;;;;108.60;85.28;;;21.90;58.70;;;;;;4697762;55;21628;-41
2022/11/17 12:50:30;;;;;;;114.70;88.55;;;21.90;58.40;;;;;;4709204;55;21159;-49
2022/11/17 12:56:06;;;;;;;119.50;91.53;;;21.90;58.30;;;;;;4837446;55;21012;-42
2022/11/17 13:01:40;;;;;;;116.60;90.15;;;21.80;58.10;;;;;;4694633;59;21482;-43
2022/11/17 13:07:02;;;;;;;118.30;88.40;;;21.90;58.10;;;;;;4693606;59;21005;-41
2022/11/17 13:12:05;;;;;;;116.12;90.15;;;21.80;58.00;;;;;;4773395;55;21003;-45
2022/11/17 13:17:10;;;;;;;116.70;91.75;;;21.80;58.00;;;;;;4764009;55;21501;-36
2022/11/17 13:22:17;;;;;;;112.53;86.07;;;21.80;57.90;;;;;;4708297;55;21486;-46
2022/11/17 13:27:29;;;;;;;113.30;87.65;;;21.80;57.90;;;;;;4704779;55;21482;-40
2022/11/17 13:32:30;;;;;;;117.28;87.97;;;21.80;57.80;;;;;;4693706;59;21104;-36
2022/11/17 13:37:31;;;;;;;116.93;89.20;;;21.80;57.70;;;;;;4693402;59;21012;-44
2022/11/17 13:42:33;;;;;;;119.82;89.43;;;21.80;57.70;;;;;;4694433;59;20980;-43
2022/11/17 13:47:44;;;;;;;113.43;86.22;;;21.80;57.60;;;;;;4776215;55;21300;-45
2022/11/17 13:52:45;;;;;;;112.80;86.37;;;21.80;57.60;;;;;;4703977;55;21525;-44
2022/11/17 13:58:01;;;;;;;111.60;83.65;;;21.80;57.70;;;;;;4731922;55;21096;-45
2022/11/17 14:03:26;;;;;;;111.07;83.70;;;21.80;58.00;;;;;;4694406;59;21079;-39
2022/11/17 14:08:30;;;;;;;114.93;86.32;;;21.90;58.10;;;;;;4768332;55;21057;-43
2022/11/17 14:13:44;;;;;;;113.40;83.22;;;21.90;58.90;;;;;;4743584;55;21643;-35
2022/11/17 14:18:55;;;;;;;108.37;82.57;;;22.00;58.30;;;;;;4723151;55;21000;-46
2022/11/17 14:24:05;;;;;;;110.60;83.50;;;22.00;58.90;;;;;;4694472;59;21023;-38
2022/11/17 14:29:10;;;;;;;108.25;83.25;;;22.00;58.90;;;;;;4723069;55;20995;-46
2022/11/17 14:34:11;;;;;;;109.40;81.85;;;22.00;58.70;;;;;;4691103;59;21060;-44
2022/11/17 14:39:15;;;;;;;109.68;81.60;;;22.00;58.80;;;;;;4712598;55;21015;-43
2022/11/17 14:44:16;;;;;;;108.82;82.60;;;22.00;58.70;;;;;;4789829;55;21020;-38
2022/11/17 14:49:17;;;;;;;103.87;78.43;;;22.00;59.70;;;;;;4694408;56;21083;-49
2022/11/17 14:54:18;;;;;;;104.38;76.60;;;21.90;59.20;;;;;;4691106;59;21743;-48
2022/11/17 14:59:19;;;;;;;104.57;77.25;;;21.90;59.30;;;;;;4691927;59;21083;-42
2022/11/17 15:04:20;;;;;;;94.00;73.68;;;21.90;59.40;;;;;;4728704;55;21107;-41
2022/11/17 15:09:20;;;;;;;94.18;74.10;;;21.90;59.40;;;;;;4700104;55;21071;-40
2022/11/17 15:14:21;;;;;;;93.93;74.15;;;21.80;59.40;;;;;;4790199;55;21020;-47
2022/11/17 15:19:22;;;;;;;97.43;74.35;;;21.80;59.50;;;;;;4694776;59;20992;-45
2022/11/17 15:24:23;;;;;;;94.55;74.72;;;21.80;59.70;;;;;;4694485;56;21016;-46
2022/11/17 15:29:24;;;;;;;95.03;73.25;;;21.80;59.70;;;;;;4694800;59;21561;-46
2022/11/17 15:34:25;;;;;;;90.45;72.40;;;21.80;59.70;;;;;;4709479;55;21471;-44
2022/11/17 15:39:26;;;;;;;94.82;73.00;;;21.80;59.80;;;;;;4857633;55;21043;-46
2022/11/17 15:44:27;;;;;;;92.97;72.45;;;21.70;59.70;;;;;;4713661;55;21024;-47
2022/11/17 15:49:28;;;;;;;91.63;70.90;;;21.70;59.80;;;;;;4709440;55;21004;-46
2022/11/17 15:54:29;;;;;;;90.68;69.22;;;21.70;59.80;;;;;;4792084;55;21589;-48
2022/11/17 15:59:30;;;;;;;90.30;68.70;;;21.70;59.90;;;;;;4705106;55;21482;-48
2022/11/17 16:04:30;;;;;;;87.28;69.03;;;21.70;59.90;;;;;;4694133;57;21024;-44
2022/11/17 16:09:33;;;;;;;86.43;68.40;;;21.70;59.80;;;;;;4695239;57;21004;-42
2022/11/17 16:14:34;;;;;;;84.25;67.07;;;21.70;59.80;;;;;;4710602;55;21518;-47
2022/11/17 16:19:34;;;;;;;91.50;68.93;;;21.70;59.90;;;;;;4830142;55;21067;-41
2022/11/17 16:24:35;;;;;;;86.55;69.90;;;21.70;59.90;;;;;;4835253;55;21000;-34
2022/11/17 16:29:36;;;;;;;85.15;68.80;;;21.70;59.80;;;;;;4694809;59;21008;-36
2022/11/17 16:34:39;;;;;;;88.35;68.78;;;21.70;59.90;;;;;;4725334;55;21017;-41
2022/11/17 16:39:40;;;;;;;88.62;68.37;;;21.70;59.80;;;;;;4891969;55;21509;-48
2022/11/17 16:44:41;;;;;;;87.70;69.90;;;21.70;59.90;;;;;;4694631;59;21063;-46
2022/11/17 16:49:42;;;;;;;88.82;69.75;;;21.70;59.90;;;;;;4733029;55;21016;-42
2022/11/17 16:54:42;;;;;;;86.55;69.43;;;21.70;59.90;;;;;;4791172;55;21072;-40
2022/11/17 16:59:43;;;;;;;83.93;67.50;;;21.60;59.80;;;;;;4694355;59;21016;-45
2022/11/17 17:04:44;;;;;;;90.93;70.70;;;21.60;59.80;;;;;;4820419;55;21497;-36
2022/11/17 17:09:45;;;;;;;88.57;70.57;;;21.60;59.80;;;;;;4842424;55;21063;-46
2022/11/17 17:14:45;;;;;;;87.82;70.00;;;21.70;59.90;;;;;;4915676;55;21080;-44
2022/11/17 17:19:46;;;;;;;87.22;71.57;;;21.60;59.90;;;;;;4769897;55;21016;-43
2022/11/17 17:24:47;;;;;;;88.05;70.30;;;21.60;59.80;;;;;;4694298;59;21011;-38
2022/11/17 17:29:48;;;;;;;86.07;69.87;;;21.60;59.80;;;;;;4779244;55;21518;-44
2022/11/17 17:34:49;;;;;;;90.68;72.50;;;21.70;59.90;;;;;;5050398;55;21019;-40
2022/11/17 17:39:49;;;;;;;90.82;71.97;;;21.60;59.80;;;;;;4764335;55;21063;-29
2022/11/17 17:44:50;;;;;;;90.22;70.50;;;21.60;59.80;;;;;;4694337;56;21019;-44
2022/11/17 17:49:51;;;;;;;87.70;69.65;;;21.60;59.80;;;;;;4714159;55;20996;-40
2022/11/17 17:54:52;;;;;;;91.30;72.82;;;21.60;59.80;;;;;;4764659;55;21493;-43
2022/11/17 17:59:52;;;;;;;92.50;72.97;;;21.60;59.80;;;;;;4762788;55;21000;-42
2022/11/17 18:04:53;;;;;;;91.80;73.10;;;21.60;59.80;;;;;;4789002;55;21060;-45
2022/11/17 18:09:54;;;;;;;90.93;73.12;;;21.60;59.80;;;;;;4714432;55;21008;-47
2022/11/17 18:14:57;;;;;;;93.28;73.75;;;21.60;59.80;;;;;;4694202;59;21035;-41
2022/11/17 18:19:57;;;;;;;94.15;74.30;;;21.60;59.90;;;;;;4793271;55;21131;-45
2022/11/17 18:24:58;;;;;;;91.72;73.80;;;21.60;59.80;;;;;;4704135;55;21075;-42
2022/11/17 18:29:59;;;;;;;91.63;74.22;;;21.60;59.80;;;;;;4939328;55;21473;-41
2022/11/17 18:35:00;;;;;;;94.15;75.45;;;21.60;59.80;;;;;;4716624;55;21507;-45
2022/11/17 18:40:00;;;;;;;94.37;75.55;;;21.60;60.50;;;;;;4784914;55;21004;-45
2022/11/17 18:45:01;;;;;;;93.95;75.55;;;21.60;59.80;;;;;;4779867;55;21067;-41
2022/11/17 18:50:03;;;;;;;95.40;75.25;;;21.60;59.80;;;;;;4694496;59;21494;-40
2022/11/17 18:55:04;;;;;;;97.80;76.35;;;21.60;59.90;;;;;;4988416;55;21032;-47
2022/11/17 19:00:06;;;;;;;96.90;77.07;;;21.60;59.80;;;;;;4723899;55;21060;-43
2022/11/17 19:05:07;;;;;;;97.50;77.68;;;21.60;59.80;;;;;;4694024;59;21028;-36
2022/11/17 19:10:08;;;;;;;94.57;75.95;;;21.60;59.80;;;;;;4695122;59;21008;-49
2022/11/17 19:15:09;;;;;;;102.70;80.05;;;21.60;59.80;;;;;;4694260;59;21016;-37
2022/11/17 19:20:12;;;;;;;97.60;75.85;;;21.60;59.90;;;;;;4694844;59;21060;-47
2022/11/17 19:25:13;;;;;;;96.20;78.43;;;21.60;59.80;;;;;;4778342;55;21661;-45
2022/11/17 19:30:14;;;;;;;99.43;80.38;;;21.60;59.80;;;;;;4853004;55;21482;-42
2022/11/17 19:35:15;;;;;;;96.45;77.07;;;21.60;59.80;;;;;;4694446;59;21470;-38
2022/11/17 19:40:16;;;;;;;97.80;80.12;;;21.60;59.80;;;;;;4817585;55;21055;-42
2022/11/17 19:45:17;;;;;;;96.93;77.72;;;21.60;59.80;;;;;;4704400;55;21004;-48
2022/11/17 19:50:18;;;;;;;97.62;79.87;;;21.60;59.80;;;;;;4694433;59;21008;-45
2022/11/17 19:55:18;;;;;;;99.00;81.05;;;21.60;59.90;;;;;;4694433;59;21016;-43
2022/11/17 20:00:20;;;;;;;98.22;78.50;;;21.60;59.80;;;;;;4749098;55;21007;-48
2022/11/17 20:05:20;;;;;;;97.55;77.75;;;21.60;59.90;;;;;;4859784;55;21589;-40
2022/11/17 20:10:21;;;;;;;97.15;80.18;;;21.60;59.90;;;;;;4841222;55;21020;-49
2022/11/17 20:15:22;;;;;;;101.60;78.47;;;21.60;59.90;;;;;;4694629;59;21028;-44
2022/11/17 20:20:23;;;;;;;96.82;78.95;;;21.60;59.90;;;;;;4711938;55;21008;-46
2022/11/17 20:25:24;;;;;;;101.45;80.20;;;21.60;59.80;;;;;;4742567;55;21080;-42
2022/11/17 20:30:25;;;;;;;99.35;79.37;;;21.60;59.70;;;;;;4711518;55;21060;-41
2022/11/17 20:35:25;;;;;;;98.22;79.22;;;21.60;60.40;;;;;;4923380;55;21084;-41
2022/11/17 20:40:30;;;;;;;95.07;78.93;;;21.60;59.80;;;;;;4878081;55;21027;-43
2022/11/17 20:45:31;;;;;;;100.45;79.50;;;21.60;59.70;;;;;;4869604;55;21017;-45
2022/11/17 20:50:32;;;;;;;96.80;78.60;;;21.60;59.70;;;;;;4776975;55;21016;-45
2022/11/17 20:55:33;;;;;;;97.05;79.05;;;21.60;59.70;;;;;;4992241;55;21019;-43
2022/11/17 21:00:33;;;;;;;99.18;79.53;;;21.60;59.70;;;;;;4790522;55;21060;-42
2022/11/17 21:05:34;;;;;;;100.07;79.00;;;21.60;59.60;;;;;;4693777;59;21020;-38
2022/11/17 21:10:36;;;;;;;93.93;77.62;;;21.60;59.60;;;;;;4811015;55;21478;-42
2022/11/17 21:15:36;;;;;;;97.10;77.60;;;21.60;59.50;;;;;;4798681;55;21020;-37
2022/11/17 21:20:37;;;;;;;104.57;81.50;;;21.60;59.50;;;;;;4866037;55;21015;-41
2022/11/17 21:25:38;;;;;;;95.20;77.03;;;21.60;59.50;;;;;;4773154;55;21000;-39
2022/11/17 21:30:39;;;;;;;98.65;79.00;;;21.60;60.20;;;;;;5161242;55;21127;-38
2022/11/17 21:35:40;;;;;;;97.97;76.35;;;21.50;59.50;;;;;;4838691;55;21008;-42
2022/11/17 21:40:40;;;;;;;96.53;77.37;;;21.60;59.50;;;;;;4694690;59;21044;-44
2022/11/17 21:45:41;;;;;;;98.82;79.80;;;21.60;59.50;;;;;;4777667;55;21833;-44
2022/11/17 21:50:43;;;;;;;94.43;75.82;;;21.60;59.40;;;;;;4720913;55;21000;-45
2022/11/17 21:55:44;;;;;;;95.70;76.20;;;21.60;59.40;;;;;;4740594;55;21084;-48
2022/11/17 22:00:45;;;;;;;92.65;75.20;;;21.50;59.40;;;;;;4772245;55;21064;-37
2022/11/17 22:05:45;;;;;;;98.72;77.37;;;21.50;59.30;;;;;;4790353;55;21032;-44
2022/11/17 22:10:46;;;;;;;95.40;74.82;;;21.50;59.30;;;;;;4725998;55;21477;-46
2022/11/17 22:15:47;;;;;;;98.43;77.80;;;21.50;59.90;;;;;;5031685;55;21080;-46
2022/11/17 22:20:51;;;;;;;96.68;77.50;;;21.60;59.30;;;;;;4727681;55;21092;-36
2022/11/17 22:25:59;;;;;;;99.43;77.55;;;21.50;59.30;;;;;;4744673;55;20992;-40
2022/11/17 22:31:08;;;;;;;96.22;76.47;;;21.50;59.20;;;;;;4833713;55;21075;-43
2022/11/17 22:36:09;;;;;;;92.93;75.53;;;21.50;59.20;;;;;;4694957;59;21008;-37
2022/11/17 22:41:11;;;;;;;97.18;76.87;;;21.50;59.20;;;;;;4749052;55;20996;-46
2022/11/17 22:46:12;;;;;;;96.30;77.10;;;21.50;59.20;;;;;;4695278;59;21004;-42
2022/11/17 22:52:02;;;;;;;93.12;75.18;;;21.50;59.20;;;;;;4784182;55;21059;-43
2022/11/17 22:57:02;;;;;;;93.57;75.65;;;21.50;59.10;;;;;;4855933;55;21668;-46
2022/11/17 23:02:03;;;;;;;89.30;72.62;;;21.50;59.10;;;;;;4785181;55;21020;-45
2022/11/17 23:07:04;;;;;;;95.15;75.75;;;21.50;59.20;;;;;;4954837;55;21061;-38
2022/11/17 23:12:05;;;;;;;95.70;76.20;;;21.50;59.10;;;;;;4694890;59;21012;-34
2022/11/17 23:17:07;;;;;;;92.35;74.18;;;21.50;59.10;;;;;;4956428;55;20996;-38
2022/11/17 23:22:09;;;;;;;91.68;73.85;;;21.50;59.00;;;;;;4736308;55;21004;-46
2022/11/17 23:27:10;;;;;;;89.55;70.55;;;21.50;59.00;;;;;;4780525;55;21522;-44
2022/11/17 23:32:11;;;;;;;88.05;70.60;;;21.50;59.00;;;;;;4703973;55;21003;-47
2022/11/17 23:37:12;;;;;;;89.90;71.00;;;21.50;59.00;;;;;;4786160;55;21032;-38
2022/11/17 23:42:12;;;;;;;92.70;73.30;;;21.50;58.90;;;;;;4716444;55;21028;-44
2022/11/17 23:47:13;;;;;;;91.65;71.87;;;21.50;59.00;;;;;;4696464;55;21007;-35
2022/11/17 23:52:14;;;;;;;91.30;71.68;;;21.50;59.00;;;;;;4725913;55;21020;-42
2022/11/17 23:57:15;;;;;;;93.60;72.72;;;21.50;58.90;;;;;;4945840;55;21020;-45
